Cape Broyle, Canada
Current Conditions -  °F | °C
As of 7:51 AM on Saturday 25 Oct 2014 (Local Time) from CYYT Reporting Station
Moderate Fog Moderate Fog  
Wind Chill: 50°   Ceiling: 200
Heat Index: 50°   Visibility: 0.5mi
Dew Point: 50°   Wind: 6mph
Humidity: 100%   Direction: 360°N
Pressure: 29.46"   Gusts: NA
Location:  47.08°N, 52.95°W
Report Text: CYYT 250951Z 36005KT 1/2SM FG VV002 10/10 A2946 RMK FG8 SLP980
Loading
Personal Weather Stations






























Interactive Weather Map
Tropical Storm Tracking
New forecast layout! Learn more

10-Day Weather Forecast

Advertisements
Track Severe Weather on mobile